Lentvaris, Lithuania
Current Conditions -  °F | °C
As of 4:50 PM on Thursday 30 Oct 2014 (Local Time) from EYVI Reporting Station
Haze Haze  
Wind Chill: 39°   Ceiling: Unl
Heat Index: 43°   Visibility: 2.5mi
Dew Point: 32°   Wind: 6mph
Humidity: 66%   Direction: 230°SW
Pressure: 30.12"   Gusts: NA
Location:  54.65°N, 25.05°E
Report Text: EYVI 301350Z 23005KT 4000 HZ NSC 06/00 Q1020 NOSIG
Loading
Personal Weather Stations






























Interactive Weather Map
Tropical Storm Tracking
New forecast layout! Learn more

10-Day Weather Forecast

Advertisements
Track Severe Weather on mobile